ADDS METAR Data INFO
IDs: Format: Raw Decoded Include TAF

Data at: 2355 UTC 24 Feb 2018

KPEZ 242335Z AUTO 07007KT 310V070 10SM CLR 23/20 A2985 RMK AO2 T02250201
KPEZ 242315Z AUTO 31012KT 10SM CLR 23/20 A2985 RMK AO2 T02280198
KPEZ 242255Z AUTO 14009KT 100V160 10SM CLR 23/20 A2980 RMK AO2 T02300198
KPEZ 242235Z AUTO 14008KT 050V170 10SM CLR 23/20 A2983 RMK AO2 T02320200
KPEZ 242215Z AUTO 05007KT 310V080 10SM CLR 24/20 A2983 RMK AO2 T02350198
KPEZ 242155Z AUTO 33005KT 10SM CLR 24/20 A2985 RMK AO2 T02350200
KPEZ 242135Z AUTO 32005KT 10SM CLR 24/20 A2984 RMK AO2 T02350197
KPEZ 242115Z AUTO 15005KT 10SM CLR 24/20 A2985 RMK AO2 T02370198
KPEZ 242055Z AUTO 03006KT 10SM SCT018 24/20 A2984 RMK AO2 T02360198
KPEZ 242035Z AUTO 13005KT 10SM SCT020 BKN043 23/20 A2985 RMK AO2 T02330197
KPEZ 242015Z AUTO 09007KT 310V170 10SM SCT020 BKN033 BKN041 24/20 A2985 RMK AO2 T02350195
KPEZ 241955Z AUTO 13008KT 320V160 10SM SCT020 OVC033 23/20 A2986 RMK AO2 T02330198
KPEZ 241935Z AUTO 34005KT 10SM BKN018 OVC035 24/20 A2986 RMK AO2 T02350198
KPEZ 241915Z AUTO 19006KT 10SM BKN020 BKN027 OVC035 23/20 A2988 RMK AO2 T02310197
KPEZ 241855Z AUTO 18008KT 10SM SCT018 BKN026 OVC033 23/19 A2989 RMK AO2 T02300193
KPEZ 241835Z AUTO 19010G17KT 10SM BKN027 OVC033 23/19 A2989 RMK AO2 T02300194
KPEZ 241815Z AUTO 18012G17KT 10SM SCT022 OVC030 23/20 A2989 RMK AO2 T02280195
KPEZ 241755Z AUTO 18013G18KT 10SM SCT018 BKN030 OVC035 23/20 A2991 RMK AO2 T02260197 10226 20202
KPEZ 241735Z AUTO 18012G18KT 10SM OVC027 23/20 A2991 RMK AO2 T02250199
KPEZ 241715Z AUTO 18012G20KT 10SM SCT016 OVC027 22/20 A2991 RMK AO2 T02200199
KPEZ 241655Z AUTO 18015G19KT 10SM -RA BKN016 OVC023 22/20 A2991 RMK AO2 T02180201
KPEZ 241635Z AUTO 18012KT 10SM BKN017 OVC027 22/20 A2992 RMK AO2 T02200204
KPEZ 241615Z AUTO 18011KT 10SM OVC015 22/21 A2991 RMK AO2 T02150205
KPEZ 241555Z AUTO 18011KT 10SM OVC015 21/20 A2991 RMK AO2 T02110203
KPEZ 241535Z AUTO 18011KT 10SM BKN018 OVC027 21/20 A2991 RMK AO2 T02100202
KPEZ 241515Z AUTO 17013G17KT 10SM BKN020 OVC029 21/20 A2991 RMK AO2 T02100202
KPEZ 241455Z AUTO 17012G18KT 10SM SCT022 OVC029 21/20 A2990 RMK AO2 T02100202
KPEZ 241435Z AUTO 17014G18KT 7SM BKN027 OVC034 21/21 A2990 RMK AO2 T02070205
KPEZ 241415Z AUTO 16012G19KT 7SM OVC036 21/21 A2989 RMK AO2 T02050205
KPEZ 241355Z AUTO 17014G19KT 7SM SCT017 OVC038 21/21 A2989 RMK AO2 T02050205
KPEZ 241335Z AUTO 17013G18KT 7SM SCT017 SCT032 BKN038 20/20 A2989 RMK AO2 T02020202
KPEZ 241315Z AUTO 16013G19KT 7SM SCT025 BKN032 BKN038 20/20 A2988 RMK AO2 T02030203
KPEZ 241255Z AUTO 16013G19KT 7SM SCT021 BKN029 OVC037 20/20 A2988 RMK AO2 T02030203
KPEZ 241235Z AUTO 16015G19KT 7SM SCT031 BKN039 BKN046 20/20 A2988 RMK AO2 T02030203
KPEZ 241215Z AUTO 17014G20KT 5SM BR SCT005 SCT024 BKN045 20/20 A2988 RMK AO2 T02030203
KPEZ 241155Z AUTO 17013G19KT 5SM RA SCT005 SCT041 BKN120 20/20 A2988 RMK AO2 60001 70001 T02030203 10210 20196
KPEZ 241135Z AUTO 16011G18KT 5SM BR SCT039 SCT120 20/20 A2988 RMK AO2 T02030203
KPEZ 241115Z AUTO 16011G18KT 7SM SCT032 SCT039 20/20 A2988 RMK AO2 T02030203
KPEZ 241055Z AUTO 16012G21KT 7SM BKN034 BKN042 BKN075 21/21 A2989 RMK AO2 T02060206
KPEZ 241035Z AUTO 16019G24KT 7SM CLR 20/20 A2988 RMK AO2 T02030203
KPEZ 241015Z AUTO 16015G20KT 7SM CLR 20/20 A2988 RMK AO2 T01990199
KPEZ 240955Z AUTO 13009G17KT 7SM SCT025 SCT043 SCT080 20/20 A2988 RMK AO2 P0001 T02000200
KPEZ 240935Z AUTO 14009KT 7SM RA SCT020 BKN038 OVC110 20/20 A2989 RMK AO2 P0001 T01990199
KPEZ 240915Z AUTO 19009KT 10SM -RA SCT017 BKN030 OVC037 20/20 A2994 RMK AO2 T01980198
KPEZ 240855Z AUTO 19009KT 10SM SCT015 BKN020 OVC030 20/20 A2994 RMK AO2 T02000200
KPEZ 240835Z AUTO 18009KT 10SM BKN017 BKN022 OVC028 20/20 A2994 RMK AO2 T02030200
KPEZ 240815Z AUTO 17008KT 10SM BKN016 OVC022 21/20 A2993 RMK AO2 T02050197
KPEZ 240755Z AUTO 17008KT 10SM SCT012 BKN019 OVC027 21/20 A2995 RMK AO2 T02060196
KPEZ 240735Z AUTO 18011KT 10SM SCT012 SCT018 OVC026 21/20 A2996 RMK AO2 T02070196
KPEZ 240715Z AUTO 18011KT 10SM BKN014 OVC025 21/20 A2998 RMK AO2 T02080196
KPEZ 240655Z AUTO 18012KT 10SM BKN014 OVC023 21/20 A2996 RMK AO2 T02090195
KPEZ 240635Z AUTO 18013G21KT 10SM BKN014 OVC020 21/20 A2997 RMK AO2 T02100195
KPEZ 240615Z AUTO 18014G20KT 10SM OVC012 21/20 A2997 RMK AO2 T02100196
KPEZ 240555Z AUTO 16014G24KT 10SM OVC012 21/20 A2996 RMK AO2 T02100196 10223 20210 402260085
KPEZ 240535Z AUTO 17014G22KT 10SM BKN010 OVC014 21/20 A2997 RMK AO2 T02100196
KPEZ 240515Z AUTO 16014G21KT 10SM OVC010 21/20 A2997 RMK AO2 T02100197
KPEZ 240455Z AUTO 18012G21KT 10SM OVC010 21/20 A2997 RMK AO2 T02100196
KPEZ 240435Z AUTO 17016G24KT 10SM OVC012 21/20 A2997 RMK AO2 T02110195
KPEZ 240415Z AUTO 16014G21KT 10SM OVC012 21/20 A2998 RMK AO2 T02110195
KPEZ 240355Z AUTO 16014G20KT 10SM OVC014 21/19 A2998 RMK AO2 T02100190
KPEZ 240335Z AUTO 17007KT 10SM OVC014 21/19 A2998 RMK AO2 T02100186
KPEZ 240315Z AUTO 16008G17KT 120V180 10SM BKN016 OVC046 21/19 A2999 RMK AO2 T02130187
KPEZ 240255Z AUTO 17009G17KT 10SM OVC046 22/19 A2999 RMK AO2 T02150186
KPEZ 240235Z AUTO 16009G17KT 120V180 10SM OVC046 22/19 A2998 RMK AO2 T02150185
KPEZ 240215Z AUTO 17009KT 130V190 10SM OVC046 22/19 A2998 RMK AO2 T02150185
KPEZ 240155Z AUTO 18010KT 10SM SCT034 BKN048 22/19 A2998 RMK AO2 T02150185
KPEZ 240135Z AUTO 17010KT 10SM BKN034 BKN044 OVC050 22/19 A2998 RMK AO2 T02200185
KPEZ 240115Z AUTO 17011KT 10SM SCT030 SCT037 OVC050 22/19 A2998 RMK AO2 T02200188
KPEZ 240055Z AUTO 17010KT 10SM SCT028 SCT038 OVC050 22/19 A2998 RMK AO2 T02230187
KPEZ 240035Z AUTO 17012KT 10SM BKN026 OVC036 22/19 A2998 RMK AO2 T02200190
KPEZ 240015Z AUTO 17010KT 10SM BKN029 BKN034 OVC050 22/19 A2998 RMK AO2 T02210190
KPEZ 232355Z AUTO 18011KT 10SM OVC031 22/19 A2998 RMK AO2 T02220190 10226 20170
KPEZ 232335Z AUTO 17010KT 10SM SCT031 BKN035 OVC046 22/19 A2998 RMK AO2 T02240190
KPEZ 232315Z AUTO 18012KT 10SM SCT028 BKN042 OVC048 23/19 A2998 RMK AO2 T02250188
KPEZ 232255Z AUTO 18012KT 10SM BKN031 OVC037 23/19 A2999 RMK AO2 T02250186
KPEZ 232235Z AUTO 18013KT 10SM SCT028 OVC037 23/19 A2999 RMK AO2 T02250185
KPEZ 232215Z AUTO 18011KT 10SM SCT026 BKN030 OVC039 23/19 A2999 RMK AO2 T02250185
KPEZ 232155Z AUTO 18012G17KT 10SM BKN024 OVC028 23/19 A3000 RMK AO2 T02250187
KPEZ 232135Z AUTO 18011G16KT 10SM SCT020 BKN026 OVC033 23/19 A3001 RMK AO2 T02250190
KPEZ 232115Z AUTO 18015G22KT 10SM SCT019 SCT025 OVC034 22/19 A3002 RMK AO2 T02240189
KPEZ 232055Z AUTO 17016G24KT 10SM SCT011 BKN022 OVC036 22/19 A3002 RMK AO2 T02190192
KPEZ 232035Z AUTO 17014G21KT 10SM BKN011 BKN015 OVC037 21/20 A3003 RMK AO2 T02140197
KPEZ 232015Z AUTO 19011G21KT 7SM SCT009 OVC016 21/20 A3005 RMK AO2 T02100195
KPEZ 231955Z AUTO 17015G21KT 10SM BKN009 OVC014 21/20 A3006 RMK AO2 LTG DSNT N T02090195
KPEZ 231935Z AUTO 17016G20KT 10SM OVC007 20/20 A3007 RMK AO2 T01970195
KPEZ 231915Z AUTO 16012G18KT 7SM OVC007 19/19 A3008 RMK AO2 T01910191
KPEZ 231855Z AUTO 15008G16KT 5SM BR OVC005 19/19 A3010 RMK AO2 T01850185
KPEZ 231835Z AUTO 16013KT 7SM -RA OVC005 18/18 A3011 RMK AO2 T01800180
KPEZ 231815Z AUTO 16012G16KT 5SM BR OVC003 18/18 A3012 RMK AO2 T01770177
KPEZ 231755Z AUTO 13006KT 7SM OVC003 17/17 A3013 RMK AO2 T01700170 10170 20095
KPEZ 231735Z AUTO 12006KT 5SM BR OVC001 16/16 A3013 RMK AO2 T01640164
KPEZ 231715Z AUTO 12005KT 3SM BR OVC001 16/16 A3013 RMK AO2 T01550155
KPEZ 231655Z AUTO 11005KT 1 3/4SM BR OVC001 14/14 A3014 RMK AO2 T01430143
KPEZ 231635Z AUTO 11006KT 1SM BR OVC001 13/13 A3015 RMK AO2 T01340134
KPEZ 231615Z AUTO 10005KT 1SM BR OVC001 13/13 A3015 RMK AO2 T01270127
KPEZ 231555Z AUTO 11004KT 3/4SM BR OVC001 12/12 A3016 RMK AO2 T01210121
KPEZ 231535Z AUTO 11004KT 1/2SM FG OVC001 12/12 A3016 RMK AO2 T01150115
KPEZ 231515Z AUTO 10004KT 3/4SM BR OVC001 11/11 A3016 RMK AO2 T01100110
KPEZ 231455Z AUTO 10003KT 1/2SM FG OVC001 11/11 A3015 RMK AO2 T01060106
KPEZ 231435Z AUTO 10005KT 1/2SM FG OVC001 10/10 A3015 RMK AO2 T01030103
KPEZ 231415Z AUTO 12008KT 1SM BR OVC001 10/10 A3015 RMK AO2 T00980098
KPEZ 231355Z AUTO 10005KT 3/4SM BR OVC001 10/10 A3015 RMK AO2 T00950095
KPEZ 231335Z AUTO 11007KT 1/2SM FG OVC001 10/10 A3014 RMK AO2 T00950095
KPEZ 231315Z AUTO 11008KT 1SM BR OVC003 10/10 A3014 RMK AO2 T00950095
KPEZ 231255Z AUTO 11009KT 4SM BR OVC003 10/10 A3013 RMK AO2 T00960096
KPEZ 231235Z AUTO 10006KT 10SM OVC005 10/10 A3013 RMK AO2 LTG DSNT NE T00960096
KPEZ 231220Z AUTO 11005KT 10SM OVC007 10/10 A3013 RMK AO2 T00970097